Station: Mackay  

  Atmospheric Gas Attenuation - ITU Rec 676-11   ----------------- dB/100km -----------------
Date Time Temp RH % AH g/m3 Dew Point Wind Direction Speed kph Gust kph Barometer mB Rainfall Since 9am 24GHz 47GHz 76GHz 122GHz 134GHz 241GHz
11/05 07:50 22.5 83 16.58 19.5 15 30 1022 0.2 36.0 37.0 68.8 181.8 196.1 680.6
11/05 07:40 22.6 83 16.67 19.6 19 24 1022 0.2 36.2 37.1 69.1 182.6 197.2 684.4
11/05 07:30 22.8 84 17.07 20 20 35 1022 0.2 37.0 37.8 70.8 187.1 202.7 703.7
11/05 07:20 22.7 85 17.17 20 20 30 1021.7 0.2 37.2 38.0 71.4 188.5 204.5 709.8
11/05 07:10 22.3 88 17.38 20.2 15 24 1021.4 0.2 37.7 38.6 72.7 192.1 208.8 724.7
11/05 07:00 22 91 17.66 20.5 19 37 1021.4 0.2 38.4 39.3 74.3 196.4 214.0 742.8
11/05 06:50 21.7 90 17.17 20 17 22 1021.5 0.2 37.3 38.5 72.3 191.0 207.2 719.2
11/05 06:40 21.5 89 16.78 19.6 19 22 1021.4 0.2 36.5 37.8 70.6 186.6 201.7 700.0
11/05 06:30 21 89 16.3 19.1 26 37 1021.4 0.2 35.5 37.1 68.8 181.8 195.7 678.9
11/05 06:20 22.5 87 17.38 20.2 20 26 1021.2 0.2 37.7 38.5 72.5 191.6 208.2 722.7
11/05 06:10 22.9 84 17.17 20.1 22 30 1020.9 0.2 37.2 37.9 71.1 187.9 203.8 707.6
11/05 06:00 22.9 82 16.76 19.7 17 26 1020.7 0.2 36.4 37.1 69.2 182.8 197.6 685.8
11/05 05:50 22.9 80 16.35 19.3 19 24 1020.8 0.2 35.5 36.4 67.3 177.8 191.5 664.5
11/05 05:40 23.1 79 16.33 19.3 19 28 1020.7 0.2 35.4 36.2 67.1 177.1 190.6 661.7
11/05 05:30 23.1 78 16.12 19.1 17 28 1020.9 0.2 35.0 35.9 66.1 174.6 187.6 650.9
11/05 05:20 23 79 16.24 19.2 15 24 1020.5 0.2 35.2 36.1 66.7 176.2 189.5 657.8
11/05 05:10 23 80 16.44 19.4 20 26 1020.3 0.2 35.7 36.5 67.6 178.6 192.5 668.1
11/05 05:00 23 81 16.65 19.6 17 26 1020.4 0.2 36.1 36.9 68.6 181.2 195.6 679.0
11/05 04:50 23 79 16.24 19.2 19 30 1020.5 0.2 35.2 36.1 66.7 176.2 189.5 657.8
11/05 04:40 23.2 78 16.21 19.1 19 26 1020.1 0.2 35.2 36.0 66.4 175.4 188.5 654.3
11/05 04:30 23.2 75 15.59 18.5 20 32 1019.8 0.2 33.8 34.8 63.6 167.9 179.4 622.5
11/05 04:20 23.2 77 16.01 18.9 19 26 1019.9 0.2 34.7 35.6 65.5 172.9 185.6 644.0
11/05 04:10 23.1 77 15.92 18.8 22 32 1019.4 0.2 34.6 35.4 65.1 172.0 184.4 640.0
11/05 04:00 23.3 77 16.1 19 19 32 1020 0.2 34.9 35.7 65.8 173.8 186.7 647.8
11/05 03:50 23.2 79 16.42 19.4 17 22 1019.9 0.2 35.6 36.3 67.3 177.9 191.6 665.1
11/05 03:40 23.3 78 16.31 19.2 19 24 1020 0.2 35.4 36.1 66.8 176.3 189.8 658.6
11/05 03:30 23.1 77 15.92 18.8 20 30 1019.8 0.2 34.6 35.5 65.2 172.1 184.5 640.2
11/05 03:20 23.2 78 16.21 19.1 20 30 1019.9 0.2 35.2 36.0 66.4 175.3 188.5 654.2
11/05 03:10 23.2 79 16.42 19.4 17 22 1020.1 0.2 35.6 36.3 67.3 177.9 191.6 665.2
11/05 03:00 23.3 78 16.31 19.2 19 33 1020.1 0.2 35.4 36.1 66.8 176.3 189.8 658.6
11/05 02:50 23.2 79 16.42 19.4 17 20 1020 0.2 35.6 36.3 67.3 177.9 191.6 665.1
11/05 02:40 23.3 81 16.93 19.9 19 26 1020 0.2 36.7 37.2 69.6 183.9 199.0 690.8
11/05 02:30 23.2 80 16.63 19.6 15 24 1020.3 0.2 36.1 36.7 68.3 180.5 194.8 676.2
11/05 02:20 23.1 77 15.92 18.8 19 24 1020.4 0.2 34.6 35.5 65.2 172.2 184.6 640.4
11/05 02:10 23 75 15.41 18.3 22 30 1020.3 0.2 33.5 34.6 63.0 166.3 177.3 615.3
11/05 02:00 23 81 16.65 19.6 19 32 1020.2 0.2 36.1 36.9 68.6 181.2 195.6 678.9
11/05 01:50 22.8 83 16.86 19.8 19 26 1020.5 0.2 36.6 37.3 69.7 184.3 199.3 691.9
11/05 01:40 22.7 82 16.57 19.5 20 28 1020.6 0.2 36.0 36.9 68.5 181.0 195.2 677.6
11/05 01:30 22 83 16.11 19 24 44 1020.4 0.2 35.1 36.3 67.0 177.0 190.1 659.6
11/05 01:20 23.4 78 16.4 19.3 24 39 1020.7 0 35.5 36.2 67.1 177.3 190.9 662.7
11/05 01:10 23.3 81 16.93 19.9 17 20 1020.7 0 36.7 37.3 69.6 184.0 199.1 691.1
11/05 01:00 23.2 79 16.42 19.4 17 30 1020.9 0 35.6 36.4 67.4 178.0 191.8 665.6
11/05 00:50 23.1 81 16.74 19.7 15 20 1021 0 36.3 37.0 68.9 182.2 196.8 683.1
11/05 00:40 22.8 84 17.07 20 15 20 1021.3 0 37.0 37.8 70.8 187.0 202.6 703.4
11/05 00:30 22.6 81 16.27 19.2 19 32 1021.4 0 35.3 36.4 67.3 177.7 191.1 663.2
11/05 00:20 22.7 83 16.77 19.7 24 32 1021.5 0 36.4 37.3 69.5 183.6 198.4 688.6
11/05 00:10 22.4 82 16.28 19.2 20 26 1021.4 0 35.4 36.5 67.5 178.2 191.8 665.5
11/05 00:00 21.7 85 16.21 19.1 24 39 1021.6 0 35.3 36.7 67.8 179.1 192.5 668.0
10/05 23:50 22.7 87 17.58 20.4 17 22 1021.6 0 38.1 38.8 73.3 193.7 210.8 731.7
10/05 23:40 22.7 81 16.36 19.3 22 28 1021.6 0 35.5 36.5 67.6 178.5 192.2 667.1
10/05 23:30 22.2 85 16.69 19.6 20 37 1021.9 0 36.3 37.4 69.6 183.8 198.6 689.1
10/05 23:20 22.7 84 16.97 19.9 13 17 1021.8 0 36.8 37.6 70.4 186.1 201.5 699.3
10/05 23:10 22.7 84 16.97 19.9 22 32 1021.9 0 36.8 37.7 70.4 186.1 201.5 699.3
10/05 23:00 22.5 87 17.38 20.2 19 32 1021.9 0 37.7 38.5 72.5 191.7 208.3 723.1
10/05 22:50 22.8 85 17.27 20.1 20 26 1021.9 0 37.4 38.2 71.7 189.6 205.8 714.3
10/05 22:40 22.9 84 17.17 20.1 19 28 1021.9 0 37.2 37.9 71.2 188.1 204.0 708.1
10/05 22:30 22.5 86 17.18 20 19 32 1021.9 0 37.3 38.1 71.6 189.2 205.2 712.4
10/05 22:20 22 87 16.88 19.7 19 28 1022 0 36.7 37.8 70.7 186.7 202.0 701.0
10/05 22:10 21.6 88 16.69 19.5 22 32 1022.2 0 36.3 37.6 70.2 185.3 200.2 694.7
10/05 22:00 23.5 80 16.92 19.8 19 32 1022.3 0 36.6 37.2 69.5 183.6 198.6 689.6
10/05 21:50 23.4 79 16.61 19.5 20 30 1022.4 0 36.0 36.7 68.2 180.1 194.3 674.4
10/05 21:40 23.4 82 17.24 20.1 15 22 1022.3 0 37.3 37.9 71.1 187.8 203.7 707.3
10/05 21:30 23.3 82 17.14 20.1 19 30 1022.5 0 37.1 37.7 70.7 186.8 202.5 703.1
10/05 21:20 23.3 83 17.35 20.2 17 24 1022.5 0 37.6 38.1 71.7 189.4 205.7 714.2
10/05 21:10 23.1 84 17.36 20.2 20 26 1022.5 0 37.6 38.2 71.9 190.0 206.4 716.6
10/05 21:00 23.1 84 17.36 20.2 19 28 1022.1 0 37.6 38.2 71.9 190.0 206.4 716.4
10/05 20:50 23 84 17.26 20.1 19 24 1022.3 0 37.4 38.1 71.5 189.0 205.1 712.1
10/05 20:40 23.1 84 17.36 20.2 22 32 1022.3 0 37.6 38.2 71.9 190.0 206.4 716.5
10/05 20:30 23.1 84 17.36 20.2 19 26 1022.3 0 37.6 38.2 71.9 190.0 206.4 716.5
10/05 20:20 23.1 83 17.16 20.1 20 28 1022.3 0 37.2 37.8 71.0 187.5 203.3 705.9
10/05 20:10 23.2 83 17.25 20.2 17 20 1022.3 0 37.4 38.0 71.3 188.4 204.4 709.7
10/05 20:00 23.2 82 17.05 20 19 32 1022.2 0 36.9 37.6 70.4 185.9 201.4 699.1
10/05 19:50 23.2 82 17.05 20 22 30 1022 0 36.9 37.6 70.3 185.9 201.4 699.0
10/05 19:40 23.3 82 17.14 20.1 19 22 1022.2 0 37.1 37.7 70.7 186.8 202.5 702.9
10/05 19:30 23.2 82 17.05 20 17 35 1021.9 0 36.9 37.6 70.3 185.9 201.3 698.9
10/05 19:20 23.2 83 17.25 20.2 13 17 1021.7 0 37.4 37.9 71.3 188.3 204.4 709.4
10/05 19:10 23.1 82 16.95 19.9 17 20 1021.5 0 36.7 37.4 69.9 184.8 200.0 694.4
10/05 19:00 23.1 82 16.95 19.9 17 35 1021.4 0 36.7 37.4 69.9 184.8 200.0 694.4
10/05 18:50 23.2 82 17.05 20 20 30 1021.5 0 36.9 37.6 70.3 185.8 201.3 698.8
10/05 18:40 23.1 82 16.95 19.9 19 30 1021.4 0 36.7 37.4 69.9 184.8 200.0 694.4
10/05 18:30 23.1 83 17.16 20.1 19 30 1021.5 0 37.2 37.8 70.9 187.4 203.2 705.5
10/05 18:20 23.1 84 17.36 20.2 15 20 1021.5 0 37.6 38.2 71.9 189.9 206.3 716.1
10/05 18:10 23 84 17.26 20.1 19 26 1021.8 0 37.4 38.1 71.5 188.9 205.1 711.9
10/05 18:00 22.9 85 17.37 20.2 19 32 1021.7 0 37.7 38.3 72.1 190.5 207.0 718.6
10/05 17:50 23 84 17.26 20.1 19 24 1021.6 0 37.4 38.0 71.5 188.9 205.0 711.8
10/05 17:40 23.1 80 16.54 19.5 19 24 1021.5 0 35.9 36.7 68.1 179.8 193.9 672.9
10/05 17:30 23.3 79 16.52 19.5 19 32 1021.5 0 35.8 36.5 67.8 179.1 193.1 670.1
10/05 17:20 23.5 80 16.92 19.8 13 19 1021.3 0 36.6 37.2 69.4 183.4 198.5 689.1
10/05 17:10 23.5 78 16.49 19.4 13 19 1021.2 0 35.7 36.4 67.5 178.2 192.1 666.7
10/05 17:00 23.5 77 16.28 19.2 17 28 1021.3 0 35.3 36.0 66.5 175.7 189.0 655.9
10/05 16:50 23.5 77 16.28 19.2 15 22 1021.1 0 35.3 36.0 66.5 175.7 189.0 655.8
10/05 16:40 23.5 78 16.49 19.4 20 30 1020.7 0 35.7 36.4 67.4 178.1 192.0 666.5
10/05 16:30 23.6 79 16.8 19.7 17 26 1020.6 0 36.4 36.9 68.8 181.6 196.4 681.6
10/05 16:20 23.7 80 17.11 20 17 24 1020.7 0 37.0 37.4 70.1 185.2 200.7 696.9
10/05 16:10 23.8 79 16.99 19.9 19 26 1020.6 0 36.8 37.1 69.4 183.5 198.7 689.7
10/05 16:00 24.1 79 17.28 20.2 19 28 1020.6 0 37.4 37.6 70.5 186.3 202.2 702.1
10/05 15:50 24 79 17.19 20.1 19 22 1020.6 0 37.2 37.4 70.2 185.4 201.1 698.3
10/05 15:40 23.7 79 16.9 19.8 19 26 1020.5 0 36.6 37.0 69.1 182.6 197.6 685.9
10/05 15:30 24 79 17.19 20.1 19 28 1020.3 0 37.2 37.4 70.2 185.4 201.1 698.2
10/05 15:20 24 80 17.4 20.3 17 22 1020.3 0 37.6 37.8 71.1 188.0 204.3 709.2

Last Refresh: 11-May-2026 07:39:03

Bureau of Meteorology